Time;durP1;ratioP1;P1;durP2;ratioP2;P2;SDS_P1;SDS_P2;PMS_P1;PMS_P2;Temp;Humidity;BMP_temperature;BMP_pressure;BME280_temperature;BME280_humidity;BME280_pressure;Samples;Min_cycle;Max_cycle;Signal;HPM_P1;HPM_P2
2022/01/04 00:01:42;;;;;;;1.15;0.73;;;21.10;45.10;;;;;;5127189;27;46910;-17
2022/01/04 00:04:09;;;;;;;1.05;0.63;;;21.10;45.00;;;;;;5126923;27;46871;-16
2022/01/04 00:06:35;;;;;;;0.50;0.50;;;21.10;45.00;;;;;;5126869;27;49048;-18
2022/01/04 00:09:04;;;;;;;0.50;0.50;;;21.10;45.00;;;;;;5127019;27;47048;-17
2022/01/04 00:11:44;;;;;;;1.95;0.70;;;21.10;45.00;;;;;;5127074;27;46884;-17
2022/01/04 00:14:12;;;;;;;0.85;0.60;;;21.10;44.90;;;;;;5127132;27;46878;-16
2022/01/04 00:16:38;;;;;;;0.90;0.60;;;21.20;45.00;;;;;;5127089;27;46913;-17
2022/01/04 00:19:05;;;;;;;0.70;0.70;;;21.20;45.00;;;;;;5126602;27;47085;-17
2022/01/04 00:21:32;;;;;;;0.40;0.40;;;21.20;45.00;;;;;;5127001;27;46985;-16
2022/01/04 00:23:58;;;;;;;1.60;0.80;;;21.20;45.00;;;;;;5126808;27;46999;-16
2022/01/04 00:26:25;;;;;;;1.17;0.60;;;21.20;45.00;;;;;;5126517;27;47059;-16
2022/01/04 00:28:52;;;;;;;1.05;0.63;;;21.20;44.90;;;;;;5126518;27;46819;-17
2022/01/04 00:31:20;;;;;;;0.80;0.65;;;21.20;45.00;;;;;;5126483;27;46932;-16
2022/01/04 00:33:47;;;;;;;0.70;0.60;;;21.20;44.90;;;;;;5126239;27;46969;-16
2022/01/04 00:36:13;;;;;;;0.73;0.70;;;21.20;44.90;;;;;;5126694;27;49031;-16
2022/01/04 00:38:40;;;;;;;0.60;0.60;;;21.20;44.90;;;;;;5126519;27;47319;-17
2022/01/04 00:41:07;;;;;;;0.60;0.60;;;21.20;44.90;;;;;;5126894;27;46932;-17
2022/01/04 00:43:33;;;;;;;0.50;0.50;;;21.20;44.90;;;;;;5126611;27;46903;-17
2022/01/04 00:46:00;;;;;;;0.57;0.55;;;21.20;44.90;;;;;;5126230;27;49057;-17
2022/01/04 00:51:13;;;;;;;0.60;0.60;;;21.20;44.80;;;;;;5123717;27;46866;-17
2022/01/04 00:53:39;;;;;;;0.55;0.55;;;21.20;44.80;;;;;;5126641;27;47079;-17
2022/01/04 00:56:06;;;;;;;0.70;0.50;;;21.20;44.80;;;;;;5126069;27;47937;-17
2022/01/04 00:58:33;;;;;;;1.15;0.40;;;21.30;44.80;;;;;;5126348;27;47080;-16
2022/01/04 01:01:00;;;;;;;0.52;0.52;;;21.30;44.90;;;;;;5126195;27;46841;-17
2022/01/04 01:03:28;;;;;;;0.80;0.50;;;21.20;44.80;;;;;;5126247;27;46929;-17
2022/01/04 01:05:55;;;;;;;0.68;0.60;;;21.20;44.80;;;;;;5126171;27;49076;-17
2022/01/04 01:08:21;;;;;;;1.35;0.70;;;21.30;44.90;;;;;;5126324;27;46842;-17
2022/01/04 01:10:49;;;;;;;0.50;0.50;;;21.30;44.90;;;;;;5126271;27;46844;-17
2022/01/04 01:13:16;;;;;;;0.50;0.50;;;21.30;44.80;;;;;;5126207;27;46914;-16
2022/01/04 01:15:45;;;;;;;1.70;0.55;;;21.30;44.80;;;;;;5126148;27;46993;-16
2022/01/04 01:18:13;;;;;;;0.68;0.60;;;21.30;44.80;;;;;;5125872;27;46817;-17
2022/01/04 01:20:41;;;;;;;0.82;0.70;;;21.30;44.80;;;;;;5125757;27;46849;-17
2022/01/04 01:23:08;;;;;;;0.50;0.50;;;21.30;44.70;;;;;;5126069;27;46931;-16
2022/01/04 01:25:35;;;;;;;0.55;0.50;;;21.30;44.80;;;;;;5125743;27;47794;-16
2022/01/04 01:28:02;;;;;;;0.52;0.52;;;21.30;44.80;;;;;;5125727;27;46766;-16
2022/01/04 01:30:30;;;;;;;0.55;0.50;;;21.30;44.80;;;;;;5125929;27;47085;-17
2022/01/04 01:32:57;;;;;;;0.63;0.52;;;21.30;44.70;;;;;;5126275;27;47075;-16
2022/01/04 01:35:24;;;;;;;0.73;0.50;;;21.40;44.70;;;;;;5125664;27;47946;-17
2022/01/04 01:37:52;;;;;;;0.50;0.50;;;21.40;44.70;;;;;;5125687;27;46897;-16
2022/01/04 01:40:18;;;;;;;0.68;0.60;;;21.30;44.70;;;;;;5125594;27;46898;-16
2022/01/04 01:42:45;;;;;;;0.40;0.40;;;21.30;44.70;;;;;;5125780;27;47275;-17
2022/01/04 01:45:16;;;;;;;0.50;0.40;;;21.30;44.80;;;;;;5124998;27;46879;-17
2022/01/04 01:47:43;;;;;;;2.33;0.80;;;21.40;44.70;;;;;;5128736;27;47423;-17
2022/01/04 01:50:11;;;;;;;0.47;0.47;;;21.40;44.60;;;;;;5129360;27;46928;-17
2022/01/04 01:52:38;;;;;;;0.45;0.45;;;21.40;44.70;;;;;;5129456;27;47088;-17
2022/01/04 01:55:07;;;;;;;0.73;0.73;;;21.40;44.60;;;;;;5128805;27;48133;-17
2022/01/04 01:57:34;;;;;;;0.60;0.60;;;21.40;44.70;;;;;;5129263;27;46974;-17
2022/01/04 02:00:00;;;;;;;0.50;0.50;;;21.40;44.70;;;;;;5129070;27;46864;-16
2022/01/04 02:02:27;;;;;;;0.82;0.57;;;21.40;44.50;;;;;;5129511;27;46885;-17
2022/01/04 02:04:54;;;;;;;0.55;0.55;;;21.40;44.60;;;;;;5128935;27;48153;-17
2022/01/04 02:07:21;;;;;;;0.55;0.55;;;21.40;44.60;;;;;;5129002;27;46813;-17
2022/01/04 02:09:58;;;;;;;0.43;0.43;;;21.40;44.60;;;;;;5129050;27;46847;-17
2022/01/04 02:12:26;;;;;;;0.50;0.50;;;21.40;44.60;;;;;;5129269;27;46907;-17
2022/01/04 02:14:53;;;;;;;0.60;0.60;;;21.40;44.60;;;;;;5128766;27;48850;-16
2022/01/04 02:17:19;;;;;;;0.40;0.40;;;21.40;44.60;;;;;;5128873;27;47258;-17
2022/01/04 02:19:47;;;;;;;0.88;0.60;;;21.50;44.60;;;;;;5128665;27;46929;-16
2022/01/04 02:22:14;;;;;;;0.60;0.60;;;21.50;44.60;;;;;;5129036;27;47005;-17
2022/01/04 02:24:41;;;;;;;0.50;0.50;;;21.50;44.60;;;;;;5128306;27;48657;-16
2022/01/04 02:27:07;;;;;;;0.60;0.60;;;21.50;44.60;;;;;;5128722;27;46887;-17
2022/01/04 02:29:34;;;;;;;0.63;0.50;;;21.40;44.60;;;;;;5128752;27;46995;-17
2022/01/04 02:32:01;;;;;;;0.52;0.52;;;21.50;44.70;;;;;;5128915;27;46916;-18
2022/01/04 02:34:27;;;;;;;1.20;0.50;;;21.50;44.60;;;;;;5128411;27;49051;-17
2022/01/04 02:36:55;;;;;;;0.50;0.50;;;21.50;44.50;;;;;;5128586;27;46992;-17
2022/01/04 02:39:22;;;;;;;0.50;0.50;;;21.50;45.10;;;;;;5128358;27;46975;-17
2022/01/04 02:41:49;;;;;;;0.52;0.52;;;21.50;44.50;;;;;;5128738;27;47016;-18
2022/01/04 02:44:16;;;;;;;0.50;0.50;;;21.50;44.50;;;;;;5127768;27;46875;-17
2022/01/04 02:46:42;;;;;;;0.43;0.43;;;21.50;44.50;;;;;;5128122;27;46883;-17
2022/01/04 02:49:09;;;;;;;0.75;0.55;;;21.50;44.60;;;;;;5128043;27;47017;-16
2022/01/04 02:51:36;;;;;;;0.70;0.68;;;21.50;44.50;;;;;;5128371;27;46879;-16
2022/01/04 02:54:04;;;;;;;0.40;0.40;;;21.50;44.50;;;;;;5128122;27;49043;-17
2022/01/04 02:56:30;;;;;;;0.50;0.45;;;21.50;44.50;;;;;;5128218;27;47415;-18
2022/01/04 02:59:03;;;;;;;0.50;0.50;;;21.50;44.50;;;;;;5128084;27;46893;-16
2022/01/04 03:01:29;;;;;;;0.55;0.55;;;21.50;44.50;;;;;;5128443;27;46883;-16
2022/01/04 03:03:56;;;;;;;0.50;0.50;;;21.50;44.50;;;;;;5128046;27;47872;-17
2022/01/04 03:06:23;;;;;;;0.70;0.60;;;21.50;44.50;;;;;;5127765;27;46840;-16
2022/01/04 03:08:49;;;;;;;0.50;0.50;;;21.50;44.50;;;;;;5128068;27;46906;-16
2022/01/04 03:11:18;;;;;;;0.70;0.70;;;21.60;44.50;;;;;;5128257;27;46925;-17
2022/01/04 03:13:44;;;;;;;0.70;0.70;;;21.60;44.40;;;;;;5127977;27;47874;-17
2022/01/04 03:16:11;;;;;;;0.60;0.60;;;21.60;44.40;;;;;;5127843;27;46825;-16
2022/01/04 03:18:51;;;;;;;0.60;0.60;;;21.60;44.50;;;;;;5127849;27;46726;-17
2022/01/04 03:21:18;;;;;;;0.60;0.60;;;21.60;44.50;;;;;;5128083;27;46906;-16
2022/01/04 03:23:45;;;;;;;0.57;0.52;;;21.60;44.40;;;;;;5127682;27;48406;-16
2022/01/04 03:26:11;;;;;;;0.60;0.52;;;21.60;44.40;;;;;;5127769;27;46887;-17
2022/01/04 03:28:40;;;;;;;0.63;0.63;;;21.60;44.40;;;;;;5127780;27;46805;-16
2022/01/04 03:31:07;;;;;;;0.50;0.43;;;21.60;44.30;;;;;;5127732;27;46925;-16
2022/01/04 03:33:35;;;;;;;0.80;0.77;;;21.60;44.40;;;;;;5127283;27;47902;-18
2022/01/04 03:36:01;;;;;;;0.70;0.70;;;21.60;44.40;;;;;;5127410;27;46842;-16
2022/01/04 03:38:28;;;;;;;0.57;0.57;;;21.60;44.50;;;;;;5127626;27;46736;-17
2022/01/04 03:40:55;;;;;;;0.40;0.40;;;21.60;44.40;;;;;;5127701;27;47356;-17
2022/01/04 03:43:22;;;;;;;0.50;0.50;;;21.60;44.30;;;;;;5127358;27;48108;-18
2022/01/04 03:45:50;;;;;;;0.50;0.50;;;21.60;44.30;;;;;;5127084;27;46867;-17
2022/01/04 03:48:17;;;;;;;0.50;0.50;;;21.60;44.30;;;;;;5127522;27;46743;-17
2022/01/04 03:50:43;;;;;;;0.55;0.55;;;21.60;44.30;;;;;;5127530;27;47162;-16
2022/01/04 03:53:10;;;;;;;0.60;0.60;;;21.60;44.40;;;;;;5127289;27;47100;-17
2022/01/04 03:55:37;;;;;;;0.70;0.70;;;21.60;44.30;;;;;;5127053;27;46825;-17
2022/01/04 03:58:04;;;;;;;0.63;0.63;;;21.60;44.30;;;;;;5127062;27;46834;-18
2022/01/04 04:00:30;;;;;;;0.70;0.70;;;21.60;44.30;;;;;;5127266;27;46871;-17
2022/01/04 04:02:58;;;;;;;0.63;0.63;;;21.60;44.30;;;;;;5126860;27;49308;-17
2022/01/04 04:05:25;;;;;;;0.60;0.60;;;21.60;44.30;;;;;;5126882;27;47324;-16
2022/01/04 04:07:52;;;;;;;0.90;0.43;;;21.60;44.30;;;;;;5127011;27;46874;-16
2022/01/04 04:10:19;;;;;;;0.70;0.60;;;21.60;44.40;;;;;;5126151;27;46913;-17
2022/01/04 04:12:45;;;;;;;0.70;0.70;;;21.60;44.30;;;;;;5126879;27;48018;-17
2022/01/04 04:15:12;;;;;;;0.70;0.70;;;21.70;44.40;;;;;;5126500;27;46987;-17
2022/01/04 04:17:39;;;;;;;0.50;0.50;;;21.70;44.30;;;;;;5126661;27;46757;-17
2022/01/04 04:20:08;;;;;;;0.55;0.55;;;21.70;44.30;;;;;;5126844;27;46840;-17
2022/01/04 04:22:34;;;;;;;0.60;0.60;;;21.70;44.40;;;;;;5126694;27;47933;-16
2022/01/04 04:25:01;;;;;;;0.60;0.60;;;21.60;44.30;;;;;;5126494;27;46827;-17
2022/01/04 04:27:28;;;;;;;0.52;0.52;;;21.70;44.30;;;;;;5126836;27;46976;-16
2022/01/04 04:29:54;;;;;;;0.50;0.50;;;21.70;44.30;;;;;;5126765;27;46868;-17
2022/01/04 04:32:21;;;;;;;0.50;0.50;;;21.70;44.30;;;;;;5126555;27;47929;-16
2022/01/04 04:34:48;;;;;;;1.17;0.70;;;21.70;44.30;;;;;;5126197;27;47019;-17
2022/01/04 04:37:16;;;;;;;0.52;0.52;;;21.70;44.30;;;;;;5126400;27;46858;-16
2022/01/04 04:39:42;;;;;;;0.60;0.60;;;21.70;44.40;;;;;;5126791;27;46847;-17
2022/01/04 04:42:09;;;;;;;0.57;0.57;;;21.70;44.30;;;;;;5126213;27;49081;-16
2022/01/04 04:44:36;;;;;;;0.70;0.70;;;21.70;44.30;;;;;;5126133;27;46939;-17
2022/01/04 04:47:03;;;;;;;0.60;0.60;;;21.70;44.30;;;;;;5126625;27;46864;-17
2022/01/04 04:49:30;;;;;;;0.93;0.73;;;21.70;44.20;;;;;;5126612;27;46964;-16
2022/01/04 04:51:59;;;;;;;0.65;0.60;;;21.70;44.30;;;;;;5126211;27;47101;-16
2022/01/04 04:54:27;;;;;;;0.75;0.60;;;21.70;44.30;;;;;;5126285;27;46791;-17
2022/01/04 04:56:53;;;;;;;0.60;0.60;;;21.70;44.30;;;;;;5137181;27;46904;-17
2022/01/04 04:59:20;;;;;;;0.60;0.60;;;21.70;44.20;;;;;;5146943;27;47280;-18
2022/01/04 05:01:47;;;;;;;0.60;0.60;;;21.70;44.20;;;;;;5146940;27;46943;-16
2022/01/04 05:04:14;;;;;;;0.70;0.70;;;21.80;44.20;;;;;;5146927;27;46936;-17
2022/01/04 05:06:40;;;;;;;1.15;0.70;;;21.70;44.30;;;;;;5146977;27;46859;-17
2022/01/04 05:09:07;;;;;;;0.60;0.60;;;21.70;44.30;;;;;;5147053;27;46934;-17
2022/01/04 05:11:35;;;;;;;0.50;0.50;;;21.70;44.30;;;;;;5147035;27;48044;-17
2022/01/04 05:14:02;;;;;;;0.77;0.70;;;21.70;44.30;;;;;;5147013;27;46921;-17
2022/01/04 05:16:28;;;;;;;0.57;0.50;;;21.70;44.30;;;;;;5146761;27;46912;-17
2022/01/04 05:18:55;;;;;;;0.70;0.70;;;21.80;44.30;;;;;;5146999;27;47157;-17
2022/01/04 05:21:22;;;;;;;0.63;0.63;;;21.80;44.30;;;;;;5147981;27;49064;-17
2022/01/04 05:23:50;;;;;;;0.63;0.57;;;21.80;44.30;;;;;;5150589;27;46940;-18
2022/01/04 05:26:16;;;;;;;0.60;0.60;;;21.70;44.30;;;;;;5150332;27;46907;-19
2022/01/04 05:28:45;;;;;;;0.60;0.60;;;21.70;44.30;;;;;;5150334;27;47278;-18
2022/01/04 05:31:12;;;;;;;0.60;0.60;;;21.80;44.30;;;;;;5150517;27;46895;-17
2022/01/04 05:33:39;;;;;;;0.60;0.60;;;21.80;44.20;;;;;;5150282;27;47262;-17
2022/01/04 05:36:05;;;;;;;0.60;0.60;;;21.80;44.20;;;;;;5150337;27;46363;-17
2022/01/04 05:38:32;;;;;;;0.50;0.50;;;21.80;44.20;;;;;;5150539;27;47009;-17
2022/01/04 05:40:59;;;;;;;0.70;0.70;;;21.80;44.30;;;;;;5150122;27;48169;-17
2022/01/04 05:43:26;;;;;;;0.60;0.60;;;21.80;44.30;;;;;;5150140;27;46905;-17
2022/01/04 05:45:54;;;;;;;0.60;0.60;;;21.80;44.30;;;;;;5150015;27;47003;-17
2022/01/04 05:48:21;;;;;;;0.80;0.73;;;21.80;44.30;;;;;;5150352;27;46840;-17
2022/01/04 05:50:47;;;;;;;0.50;0.50;;;21.80;44.30;;;;;;5150070;27;48104;-17
2022/01/04 05:53:14;;;;;;;0.57;0.57;;;21.80;44.30;;;;;;5149816;27;47513;-16
2022/01/04 05:55:41;;;;;;;0.55;0.55;;;21.80;44.30;;;;;;5149783;27;46800;-16
2022/01/04 05:58:08;;;;;;;0.63;0.60;;;21.80;44.30;;;;;;5149845;27;47292;-17
2022/01/04 06:00:34;;;;;;;0.50;0.50;;;21.80;44.30;;;;;;5108090;27;48828;-17
2022/01/04 06:03:03;;;;;;;0.50;0.50;;;21.80;44.30;;;;;;5108620;27;46904;-17
2022/01/04 06:05:29;;;;;;;0.70;0.70;;;21.80;44.30;;;;;;5108390;27;46739;-18
2022/01/04 06:07:56;;;;;;;0.73;0.60;;;21.80;44.30;;;;;;5108452;27;46888;-18
2022/01/04 06:10:23;;;;;;;0.60;0.60;;;21.80;44.30;;;;;;5108073;27;47031;-17
2022/01/04 06:15:38;;;;;;;1.27;0.55;;;21.80;44.40;;;;;;5107676;27;46974;-17
2022/01/04 06:18:06;;;;;;;0.57;0.57;;;21.80;44.30;;;;;;5108231;27;46806;-18
2022/01/04 06:20:33;;;;;;;0.60;0.60;;;21.80;44.30;;;;;;5107790;27;47905;-17
2022/01/04 06:22:59;;;;;;;0.52;0.52;;;21.80;44.30;;;;;;5107886;27;46876;-16
2022/01/04 06:25:26;;;;;;;0.88;0.52;;;21.80;44.30;;;;;;5107668;27;46906;-17
2022/01/04 06:27:53;;;;;;;0.68;0.60;;;21.80;44.30;;;;;;5108212;27;46865;-18
2022/01/04 06:30:21;;;;;;;0.93;0.80;;;21.80;44.30;;;;;;5107899;27;49039;-17
2022/01/04 06:32:48;;;;;;;0.50;0.50;;;21.80;44.30;;;;;;5107100;27;47037;-17
2022/01/04 06:35:16;;;;;;;0.50;0.50;;;21.80;44.30;;;;;;5107375;27;47061;-16
2022/01/04 06:37:43;;;;;;;0.70;0.70;;;21.80;44.30;;;;;;5107263;27;46957;-17
2022/01/04 06:40:11;;;;;;;0.57;0.57;;;21.80;44.30;;;;;;5107594;27;48114;-16
2022/01/04 06:42:38;;;;;;;0.63;0.50;;;21.80;44.30;;;;;;5107921;27;47041;-15
2022/01/04 06:45:05;;;;;;;0.65;0.65;;;21.80;44.30;;;;;;5106993;27;46881;-16
2022/01/04 06:47:32;;;;;;;0.52;0.50;;;21.80;44.40;;;;;;5107811;27;47241;-16
2022/01/04 06:49:58;;;;;;;0.52;0.52;;;21.80;44.40;;;;;;5107467;27;48094;-16
2022/01/04 06:52:27;;;;;;;0.57;0.57;;;21.80;44.40;;;;;;5107456;27;47592;-15
2022/01/04 06:54:53;;;;;;;0.60;0.60;;;21.80;44.30;;;;;;5107429;27;47074;-16
2022/01/04 06:57:20;;;;;;;0.50;0.50;;;21.80;44.30;;;;;;5107221;27;46944;-16
2022/01/04 06:59:47;;;;;;;0.50;0.50;;;21.90;44.40;;;;;;5106868;27;47068;-15
2022/01/04 07:02:13;;;;;;;0.40;0.40;;;21.80;44.30;;;;;;5107323;27;47135;-16
2022/01/04 07:04:40;;;;;;;0.47;0.47;;;21.80;44.40;;;;;;5106701;27;46821;-16
2022/01/04 07:07:07;;;;;;;0.50;0.50;;;21.80;44.40;;;;;;5107446;27;46826;-16
2022/01/04 07:09:35;;;;;;;0.70;0.70;;;21.80;44.40;;;;;;5106856;27;47694;-16
2022/01/04 07:12:02;;;;;;;0.60;0.60;;;21.80;44.40;;;;;;5106931;27;46842;-16
2022/01/04 07:14:29;;;;;;;0.50;0.50;;;21.80;44.30;;;;;;5107024;27;46766;-16
2022/01/04 07:16:56;;;;;;;0.60;0.60;;;21.80;44.20;;;;;;5106882;27;46882;-16
2022/01/04 07:19:23;;;;;;;0.50;0.50;;;21.80;44.40;;;;;;5106555;27;48173;-16
2022/01/04 07:21:50;;;;;;;0.43;0.43;;;21.80;44.40;;;;;;5107164;27;47015;-17
2022/01/04 07:24:16;;;;;;;0.55;0.55;;;21.80;44.40;;;;;;5106743;27;46973;-16
2022/01/04 07:26:45;;;;;;;0.50;0.50;;;21.80;44.40;;;;;;5106650;27;47288;-17
2022/01/04 07:29:11;;;;;;;0.75;0.75;;;21.80;44.40;;;;;;5106643;27;47151;-16
2022/01/04 07:31:38;;;;;;;0.55;0.55;;;21.80;44.40;;;;;;5106951;27;46828;-15
2022/01/04 07:34:05;;;;;;;0.50;0.50;;;21.90;44.40;;;;;;5106360;27;46890;-16
2022/01/04 07:36:32;;;;;;;0.75;0.57;;;21.90;44.40;;;;;;5106989;27;46838;-17
2022/01/04 07:38:59;;;;;;;0.55;0.55;;;21.90;44.40;;;;;;5106361;27;48162;-16
2022/01/04 07:41:26;;;;;;;0.40;0.40;;;21.80;44.40;;;;;;5106771;27;46772;-19
2022/01/04 07:43:54;;;;;;;0.47;0.47;;;21.80;44.40;;;;;;5105602;27;46837;-17
2022/01/04 07:46:23;;;;;;;0.40;0.40;;;21.80;44.40;;;;;;5107077;27;46948;-16
2022/01/04 07:48:50;;;;;;;0.40;0.40;;;21.90;44.40;;;;;;5106626;27;48119;-16
2022/01/04 07:51:17;;;;;;;0.50;0.50;;;21.90;44.40;;;;;;5106393;27;47131;-16
2022/01/04 07:53:44;;;;;;;0.47;0.47;;;21.90;44.40;;;;;;5106563;27;46870;-17
2022/01/04 07:56:11;;;;;;;0.47;0.47;;;21.90;44.40;;;;;;5106754;27;46953;-17
2022/01/04 07:58:38;;;;;;;0.50;0.50;;;21.90;44.30;;;;;;5106159;27;46905;-17
2022/01/04 08:01:06;;;;;;;0.50;0.50;;;21.80;44.40;;;;;;5106423;27;46825;-17
2022/01/04 08:03:33;;;;;;;0.50;0.50;;;21.90;44.50;;;;;;5106060;27;46834;-18
2022/01/04 08:05:59;;;;;;;0.60;0.57;;;21.90;44.50;;;;;;5106504;27;46859;-18
2022/01/04 08:08:26;;;;;;;0.50;0.50;;;21.90;45.10;;;;;;5106341;27;48215;-16
2022/01/04 08:10:53;;;;;;;0.52;0.52;;;21.90;44.30;;;;;;5105988;27;46905;-17
2022/01/04 08:13:19;;;;;;;0.50;0.50;;;21.90;44.40;;;;;;5106498;27;46820;-17
2022/01/04 08:15:46;;;;;;;2.72;1.10;;;21.90;44.40;;;;;;5106188;27;46782;-16
2022/01/04 08:18:14;;;;;;;5.15;0.75;;;21.80;44.50;;;;;;5105723;27;46826;-17
2022/01/04 08:20:41;;;;;;;4.18;0.90;;;21.80;44.50;;;;;;5105861;27;46820;-17
2022/01/04 08:23:08;;;;;;;1.58;0.63;;;21.90;44.50;;;;;;5106564;27;46990;-16
2022/01/04 08:25:34;;;;;;;1.25;0.60;;;21.90;44.50;;;;;;5106016;27;46734;-17
2022/01/04 08:28:01;;;;;;;0.98;0.57;;;21.90;44.50;;;;;;5105831;27;47715;-17
2022/01/04 08:30:28;;;;;;;6.90;0.90;;;21.90;44.40;;;;;;5105673;27;46854;-17
2022/01/04 08:32:55;;;;;;;1.85;0.73;;;21.90;44.50;;;;;;5106214;27;46974;-16
2022/01/04 08:35:23;;;;;;;2.28;0.70;;;21.90;44.50;;;;;;5106016;27;46836;-17
2022/01/04 08:37:50;;;;;;;1.88;0.70;;;21.90;44.50;;;;;;5105520;27;48125;-17
2022/01/04 08:40:17;;;;;;;1.38;0.50;;;21.90;44.40;;;;;;5105229;27;46831;-17
2022/01/04 08:42:44;;;;;;;2.05;0.60;;;21.90;44.50;;;;;;5105965;27;46742;-17
2022/01/04 08:45:11;;;;;;;0.60;0.52;;;21.90;44.50;;;;;;5105421;27;46933;-17
2022/01/04 08:47:38;;;;;;;0.88;0.50;;;21.90;44.40;;;;;;5105829;27;48106;-17
2022/01/04 08:50:06;;;;;;;0.95;0.52;;;21.90;44.40;;;;;;5105384;27;47417;-17
2022/01/04 08:52:34;;;;;;;1.70;0.73;;;21.90;44.50;;;;;;5105780;27;46762;-17
2022/01/04 08:55:01;;;;;;;1.00;0.70;;;21.90;44.30;;;;;;5106112;27;46971;-17
2022/01/04 08:57:29;;;;;;;3.03;0.75;;;21.90;44.50;;;;;;5108884;27;48702;-17
2022/01/04 08:59:57;;;;;;;0.90;0.80;;;21.90;44.50;;;;;;5108372;27;46840;-17
2022/01/04 09:02:24;;;;;;;2.33;0.60;;;21.90;44.40;;;;;;5109237;27;46895;-15
2022/01/04 09:04:51;;;;;;;1.17;0.50;;;21.90;44.50;;;;;;5109377;27;47267;-16
2022/01/04 09:07:17;;;;;;;1.33;0.70;;;21.90;44.50;;;;;;5109105;27;47772;-16
2022/01/04 09:09:46;;;;;;;1.75;0.40;;;21.90;44.40;;;;;;5109397;27;47377;-16
2022/01/04 09:12:14;;;;;;;1.98;0.50;;;21.90;44.40;;;;;;5108971;27;46841;-17
2022/01/04 09:14:54;;;;;;;0.88;0.60;;;21.90;44.40;;;;;;5109036;27;47105;-18
2022/01/04 09:20:05;;;;;;;1.35;0.82;;;22.00;44.30;;;;;;5108251;27;47047;-18
2022/01/04 09:22:32;;;;;;;0.60;0.60;;;22.00;44.40;;;;;;5109140;27;46821;-17
2022/01/04 09:25:00;;;;;;;2.10;0.60;;;22.00;44.40;;;;;;5108629;27;46941;-17
2022/01/04 09:27:28;;;;;;;0.50;0.40;;;22.00;44.40;;;;;;5108664;27;46973;-17
2022/01/04 09:29:55;;;;;;;0.73;0.50;;;21.90;44.50;;;;;;5108290;27;46994;-17
2022/01/04 09:32:22;;;;;;;1.00;0.50;;;21.90;44.40;;;;;;5108590;27;46845;-17
2022/01/04 09:34:49;;;;;;;0.60;0.60;;;22.00;44.40;;;;;;5108837;27;46849;-17
2022/01/04 09:37:15;;;;;;;1.27;0.60;;;22.00;44.50;;;;;;5108553;27;46960;-16
2022/01/04 09:39:42;;;;;;;0.68;0.50;;;22.00;44.40;;;;;;5108482;27;47449;-17
2022/01/04 09:42:10;;;;;;;1.38;0.52;;;22.00;44.40;;;;;;5107692;27;46893;-17
2022/01/04 09:44:37;;;;;;;0.60;0.60;;;22.00;44.40;;;;;;5107959;27;46873;-17
2022/01/04 09:47:05;;;;;;;0.50;0.50;;;22.00;44.50;;;;;;5108524;27;47874;-17
2022/01/04 09:49:31;;;;;;;0.88;0.70;;;22.00;44.50;;;;;;5108059;27;47066;-17
2022/01/04 09:51:58;;;;;;;0.60;0.60;;;22.00;44.50;;;;;;5108106;27;46962;-17
2022/01/04 09:54:25;;;;;;;1.00;0.50;;;22.00;44.40;;;;;;5107547;27;47201;-17
2022/01/04 09:56:52;;;;;;;3.40;0.60;;;22.00;44.50;;;;;;5108269;27;49046;-17
2022/01/04 09:59:20;;;;;;;0.75;0.60;;;22.00;44.40;;;;;;5108212;27;46746;-17
2022/01/04 10:01:52;;;;;;;0.60;0.60;;;22.00;44.40;;;;;;5107813;27;46904;-17
2022/01/04 10:04:23;;;;;;;0.40;0.40;;;22.00;44.50;;;;;;5108551;27;47024;-17
2022/01/04 10:06:58;;;;;;;0.60;0.60;;;22.00;44.50;;;;;;5107175;27;49053;-17
2022/01/04 10:09:36;;;;;;;2.33;0.70;;;22.00;44.50;;;;;;5108226;27;46972;-16
2022/01/04 10:12:05;;;;;;;1.40;0.80;;;22.00;44.50;;;;;;5108530;27;46798;-17
2022/01/04 10:14:35;;;;;;;4.55;1.20;;;22.00;44.50;;;;;;5107933;27;46915;-17
2022/01/04 10:17:03;;;;;;;0.95;0.95;;;22.00;44.50;;;;;;5108083;27;48259;-16
2022/01/04 10:19:30;;;;;;;0.80;0.80;;;22.00;44.50;;;;;;5108235;27;46845;-15
2022/01/04 10:22:23;;;;;;;0.80;0.77;;;22.00;44.50;;;;;;5108073;27;46944;-16
2022/01/04 10:24:51;;;;;;;1.00;1.00;;;22.00;44.50;;;;;;5108528;27;46869;-16
2022/01/04 10:27:29;;;;;;;1.10;1.00;;;22.00;45.20;;;;;;5108016;27;48884;-16
2022/01/04 10:30:11;;;;;;;1.95;1.10;;;21.90;44.60;;;;;;5106855;27;46815;-16
2022/01/04 10:32:48;;;;;;;1.48;1.25;;;22.00;44.40;;;;;;5108286;27;46867;-17
2022/01/04 10:35:30;;;;;;;1.30;1.20;;;22.00;44.60;;;;;;5107116;27;47112;-17
2022/01/04 10:37:58;;;;;;;1.70;1.40;;;22.00;44.80;;;;;;5107737;27;49079;-17
2022/01/04 10:40:25;;;;;;;3.38;1.50;;;22.00;44.50;;;;;;5107626;27;47013;-17
2022/01/04 10:42:52;;;;;;;1.60;1.50;;;22.00;44.50;;;;;;5107472;27;47034;-16
2022/01/04 10:45:26;;;;;;;1.55;1.27;;;22.00;44.60;;;;;;5105002;27;47166;-16
2022/01/04 10:47:53;;;;;;;2.38;1.35;;;22.00;44.60;;;;;;5106717;27;48118;-16
2022/01/04 10:50:31;;;;;;;1.95;1.58;;;22.00;44.70;;;;;;5107524;27;46863;-17
2022/01/04 10:52:59;;;;;;;1.50;1.40;;;22.00;44.60;;;;;;5107452;27;47003;-17
2022/01/04 10:55:25;;;;;;;1.95;1.40;;;22.00;44.60;;;;;;5125297;27;46873;-17
2022/01/04 10:57:52;;;;;;;2.78;1.60;;;22.00;44.60;;;;;;5127734;27;48097;-17
2022/01/04 11:00:20;;;;;;;3.88;1.50;;;22.00;44.60;;;;;;5128008;27;47455;-16
2022/01/04 11:02:48;;;;;;;1.38;1.13;;;22.00;44.60;;;;;;5127641;27;46973;-17
2022/01/04 11:05:15;;;;;;;1.90;1.75;;;22.00;44.60;;;;;;5128081;27;47156;-17
2022/01/04 11:07:58;;;;;;;4.40;1.73;;;22.00;44.60;;;;;;5127677;27;46971;-17
2022/01/04 11:10:25;;;;;;;2.03;1.90;;;22.00;44.70;;;;;;5127566;27;46889;-17
2022/01/04 11:12:52;;;;;;;3.67;2.22;;;22.00;44.60;;;;;;5127607;27;46916;-17
2022/01/04 11:15:19;;;;;;;2.30;1.80;;;22.00;44.70;;;;;;5127841;27;47306;-17
2022/01/04 11:17:46;;;;;;;2.22;1.88;;;22.00;44.60;;;;;;5127482;27;47942;-17
2022/01/04 11:20:14;;;;;;;3.45;2.03;;;22.00;44.60;;;;;;5127187;27;46995;-17
2022/01/04 11:22:41;;;;;;;1.98;1.85;;;22.00;44.60;;;;;;5127773;27;46862;-17
2022/01/04 11:25:08;;;;;;;3.70;2.25;;;22.00;44.60;;;;;;5127580;27;46945;-17
2022/01/04 11:27:36;;;;;;;6.75;2.63;;;22.00;44.80;;;;;;5123887;27;48106;-17
2022/01/04 11:30:03;;;;;;;7.05;3.30;;;22.10;44.70;;;;;;5126824;27;47203;-17
2022/01/04 11:32:31;;;;;;;3.40;2.40;;;22.10;44.90;;;;;;5124675;27;47085;-17
2022/01/04 11:35:03;;;;;;;8.50;3.00;;;22.20;44.90;;;;;;5115313;27;47177;-17
2022/01/04 11:37:31;;;;;;;4.57;3.10;;;22.30;45.10;;;;;;5126779;27;47974;-18
2022/01/04 11:39:58;;;;;;;3.42;2.00;;;22.30;44.50;;;;;;5127153;27;47416;-17
2022/01/04 11:42:40;;;;;;;6.80;2.50;;;22.30;44.10;;;;;;5127094;27;46893;-17
2022/01/04 11:45:09;;;;;;;4.18;2.63;;;22.30;44.40;;;;;;5124209;27;46897;-18
2022/01/04 11:47:37;;;;;;;5.03;3.53;;;22.30;44.60;;;;;;5126821;27;48775;-18
2022/01/04 11:50:06;;;;;;;8.13;2.80;;;22.40;44.80;;;;;;5126837;27;46992;-17
2022/01/04 11:52:41;;;;;;;8.98;3.03;;;22.40;44.60;;;;;;5124160;27;47069;-17
2022/01/04 11:55:21;;;;;;;10.65;3.30;;;22.60;44.70;;;;;;5124517;27;47103;-17
2022/01/04 11:57:48;;;;;;;10.95;3.97;;;22.60;44.50;;;;;;5125565;27;49047;-18
2022/01/04 12:00:26;;;;;;;17.20;4.97;;;22.60;44.40;;;;;;5120557;27;46964;-16
2022/01/04 12:03:04;;;;;;;12.13;4.15;;;22.60;44.50;;;;;;5111612;27;46801;-17
2022/01/04 12:05:30;;;;;;;11.32;4.35;;;22.70;44.50;;;;;;5126600;27;46887;-17
2022/01/04 12:08:00;;;;;;;14.38;4.43;;;22.70;44.90;;;;;;5126372;27;47816;-17
2022/01/04 12:10:49;;;;;;;7.43;3.72;;;22.80;44.50;;;;;;5125310;27;46953;-18
2022/01/04 12:13:16;;;;;;;9.90;3.97;;;22.90;44.50;;;;;;5126025;27;46973;-18
2022/01/04 12:16:04;;;;;;;10.35;3.70;;;22.90;44.00;;;;;;5126421;27;47175;-18
2022/01/04 12:19:01;;;;;;;10.57;4.13;;;23.00;44.00;;;;;;5126163;27;48133;-17
2022/01/04 12:21:39;;;;;;;10.60;3.92;;;23.00;44.00;;;;;;5105698;27;46888;-17
2022/01/04 12:24:08;;;;;;;18.45;4.50;;;23.00;44.10;;;;;;5105174;27;48583;-16
2022/01/04 12:26:35;;;;;;;7.50;4.35;;;23.00;44.10;;;;;;5106047;27;46849;-19
2022/01/04 12:29:32;;;;;;;9.57;4.40;;;23.10;44.50;;;;;;5110025;27;47863;-18
2022/01/04 12:32:04;;;;;;;12.25;4.10;;;23.20;44.30;;;;;;5115292;27;47557;-19
2022/01/04 12:34:57;;;;;;;9.60;4.50;;;23.20;43.90;;;;;;5128366;27;46897;-19
2022/01/04 12:37:25;;;;;;;10.45;3.70;;;23.30;44.20;;;;;;5122363;27;46979;-19
2022/01/04 12:39:53;;;;;;;12.07;4.30;;;23.30;44.70;;;;;;5126085;27;47094;-19
2022/01/04 12:42:20;;;;;;;6.10;3.88;;;23.30;43.70;;;;;;5125914;27;47493;-17
2022/01/04 12:44:55;;;;;;;11.30;3.65;;;23.40;43.90;;;;;;5125809;27;46861;-17
2022/01/04 12:47:22;;;;;;;7.07;3.90;;;23.50;43.80;;;;;;5125360;27;46993;-18
2022/01/04 12:49:49;;;;;;;9.73;3.90;;;23.50;43.80;;;;;;5109030;27;48969;-17
2022/01/04 12:52:19;;;;;;;9.15;3.97;;;23.60;43.90;;;;;;5105635;27;46923;-17
2022/01/04 12:54:46;;;;;;;11.18;3.97;;;23.60;43.60;;;;;;5125223;27;46819;-22
2022/01/04 12:57:15;;;;;;;9.73;3.60;;;23.60;43.60;;;;;;5105563;27;47143;-17
2022/01/04 12:59:42;;;;;;;10.05;4.07;;;23.70;43.90;;;;;;5106298;27;47065;-18